Time;durP1;ratioP1;P1;durP2;ratioP2;P2;SDS_P1;SDS_P2;PMS_P1;PMS_P2;Temp;Humidity;BMP_temperature;BMP_pressure;BME280_temperature;BME280_humidity;BME280_pressure;Samples;Min_cycle;Max_cycle;Signal;HPM_P1;HPM_P2
2023/01/29 00:01:27;;;;;;;18.10;16.48;;;0.40;99.90;;;;;;4974008;28;20531;-42
2023/01/29 00:03:53;;;;;;;18.92;17.23;;;0.30;99.90;;;;;;4980164;28;20188;-43
2023/01/29 00:06:19;;;;;;;19.00;17.37;;;0.20;99.90;;;;;;4979006;28;20199;-42
2023/01/29 00:08:45;;;;;;;18.73;17.10;;;0.20;99.90;;;;;;4961454;28;20314;-42
2023/01/29 00:11:11;;;;;;;18.63;17.13;;;0.20;99.90;;;;;;4978567;28;20196;-43
2023/01/29 00:13:37;;;;;;;18.43;16.80;;;0.10;99.90;;;;;;4975397;28;20559;-44
2023/01/29 00:16:03;;;;;;;18.60;17.10;;;0.10;99.90;;;;;;4977448;28;20434;-44
2023/01/29 00:18:30;;;;;;;17.80;16.40;;;0.10;99.90;;;;;;4979801;28;20427;-42
2023/01/29 00:20:56;;;;;;;18.83;17.05;;;0.20;99.90;;;;;;4966806;28;20223;-43
2023/01/29 00:23:22;;;;;;;17.40;15.90;;;0.30;99.90;;;;;;4979769;28;20180;-44
2023/01/29 00:25:48;;;;;;;18.50;17.00;;;0.30;99.90;;;;;;4964498;28;20340;-42
2023/01/29 00:28:14;;;;;;;18.17;16.67;;;0.20;99.90;;;;;;4979514;28;20552;-41
2023/01/29 00:30:40;;;;;;;18.73;17.03;;;0.20;99.90;;;;;;4978956;28;20227;-42
2023/01/29 00:33:06;;;;;;;18.85;17.25;;;0.20;99.90;;;;;;4979617;28;20192;-41
2023/01/29 00:35:32;;;;;;;18.23;16.73;;;0.30;99.90;;;;;;4978920;28;20188;-41
2023/01/29 00:37:58;;;;;;;17.35;15.88;;;0.30;99.90;;;;;;4979732;28;20519;-43
2023/01/29 00:40:25;;;;;;;18.73;17.00;;;0.20;99.90;;;;;;4972156;28;20282;-41
2023/01/29 00:45:35;;;;;;;18.42;16.92;;;0.20;99.90;;;;;;4977383;28;20215;-44
2023/01/29 00:48:02;;;;;;;18.10;16.50;;;0.20;99.90;;;;;;4979697;28;20188;-44
2023/01/29 00:50:29;;;;;;;17.55;16.13;;;0.10;99.90;;;;;;4979804;28;20185;-42
2023/01/29 00:52:54;;;;;;;17.95;16.48;;;0.10;99.90;;;;;;4980017;28;20310;-41
2023/01/29 00:55:20;;;;;;;18.10;16.37;;;0.10;99.90;;;;;;4979318;28;20202;-41
2023/01/29 00:57:46;;;;;;;18.20;16.80;;;0.00;99.90;;;;;;4979448;28;20288;-42
2023/01/29 01:00:14;;;;;;;18.63;16.83;;;0.00;99.90;;;;;;4978088;28;20220;-42
2023/01/29 01:05:24;;;;;;;17.58;16.17;;;0.10;99.90;;;;;;4978549;28;20187;-44
2023/01/29 01:07:53;;;;;;;18.63;16.93;;;0.10;99.90;;;;;;4978404;28;20188;-48
2023/01/29 01:10:29;;;;;;;18.00;16.33;;;0.10;99.90;;;;;;4966787;28;20196;-47
2023/01/29 01:12:58;;;;;;;17.85;16.27;;;0.10;99.90;;;;;;4976430;28;20540;-45
2023/01/29 01:15:27;;;;;;;18.88;17.27;;;0.10;99.90;;;;;;4979247;28;20181;-44
2023/01/29 01:17:57;;;;;;;17.92;16.23;;;0.10;99.90;;;;;;4979180;28;20200;-44
2023/01/29 01:20:24;;;;;;;17.63;16.13;;;0.20;99.90;;;;;;4979556;28;20262;-47
2023/01/29 01:22:51;;;;;;;18.48;16.88;;;0.20;99.90;;;;;;4973967;28;20198;-47
2023/01/29 01:25:17;;;;;;;19.73;17.83;;;0.20;99.90;;;;;;4971555;28;20185;-46
2023/01/29 01:27:43;;;;;;;18.23;16.57;;;0.20;99.90;;;;;;4968660;28;20232;-44
2023/01/29 01:30:14;;;;;;;18.00;16.50;;;0.20;99.90;;;;;;4966167;28;20430;-46
2023/01/29 01:32:41;;;;;;;18.38;16.80;;;0.20;99.90;;;;;;4965182;28;20200;-44
2023/01/29 01:35:08;;;;;;;19.08;17.40;;;0.20;99.90;;;;;;4966721;28;20196;-49
2023/01/29 01:37:36;;;;;;;17.75;16.45;;;0.20;99.90;;;;;;4977177;28;20199;-46
2023/01/29 01:40:04;;;;;;;18.45;16.85;;;0.10;99.90;;;;;;4976195;28;20208;-46
2023/01/29 01:42:30;;;;;;;19.83;18.13;;;0.10;99.90;;;;;;4968187;28;20215;-44
2023/01/29 01:44:58;;;;;;;19.40;17.70;;;0.10;99.90;;;;;;4969443;28;20598;-45
2023/01/29 01:47:34;;;;;;;18.83;17.23;;;0.00;99.90;;;;;;4965884;28;20173;-44
2023/01/29 01:50:07;;;;;;;20.38;18.63;;;0.00;99.90;;;;;;4964134;28;20208;-51
2023/01/29 01:52:37;;;;;;;19.40;17.63;;;0.00;99.90;;;;;;4964895;28;20185;-44
2023/01/29 01:55:04;;;;;;;20.23;18.52;;;0.00;99.90;;;;;;4964533;28;20914;-45
2023/01/29 01:57:31;;;;;;;19.90;18.30;;;0.00;99.90;;;;;;4972090;28;20554;-46
2023/01/29 02:00:02;;;;;;;19.40;17.75;;;0.00;99.90;;;;;;4964949;28;20209;-45
2023/01/29 02:10:46;;;;;;;19.13;17.52;;;0.00;99.90;;;;;;4972338;28;20270;-43
2023/01/29 02:13:17;;;;;;;20.35;18.45;;;0.10;99.90;;;;;;4964716;28;20875;-49
2023/01/29 02:15:47;;;;;;;21.40;19.27;;;0.10;99.90;;;;;;4971410;28;20224;-48
2023/01/29 02:18:19;;;;;;;21.15;19.25;;;0.10;99.90;;;;;;4963918;28;20260;-45
2023/01/29 02:21:30;;;;;;;20.20;18.45;;;0.10;99.90;;;;;;4964038;28;20197;-47
2023/01/29 02:24:14;;;;;;;21.05;19.15;;;0.00;99.90;;;;;;4967948;28;20555;-48
2023/01/29 02:27:04;;;;;;;21.15;19.02;;;0.00;99.90;;;;;;4965578;28;20273;-44
2023/01/29 02:30:01;;;;;;;22.20;19.90;;;0.00;99.90;;;;;;4975893;28;20190;-47
2023/01/29 02:32:39;;;;;;;21.65;19.67;;;0.00;99.90;;;;;;4961957;28;20335;-46
2023/01/29 02:35:28;;;;;;;21.95;19.95;;;0.00;99.90;;;;;;4976239;28;20267;-44
2023/01/29 02:38:06;;;;;;;21.85;19.88;;;0.00;99.90;;;;;;4968729;28;20175;-46
2023/01/29 02:40:55;;;;;;;23.67;21.50;;;-0.10;99.90;;;;;;4980000;28;20228;-48
2023/01/29 02:43:42;;;;;;;22.70;20.55;;;-0.10;99.90;;;;;;4962423;28;20187;-47
2023/01/29 02:46:24;;;;;;;22.50;20.50;;;-0.10;99.90;;;;;;4964229;28;20181;-45
2023/01/29 02:49:17;;;;;;;22.15;20.08;;;-0.10;99.90;;;;;;4969974;28;20184;-43
2023/01/29 02:51:58;;;;;;;22.90;20.88;;;-0.20;99.90;;;;;;4977705;28;20188;-47
2023/01/29 02:54:32;;;;;;;22.83;20.63;;;-0.20;99.90;;;;;;4973712;28;20884;-48
2023/01/29 02:57:03;;;;;;;22.75;20.52;;;-0.20;99.90;;;;;;4971764;28;20267;-44
2023/01/29 02:59:39;;;;;;;22.38;20.38;;;-0.20;99.90;;;;;;4966280;28;20227;-44
2023/01/29 03:02:11;;;;;;;23.88;21.48;;;-0.20;99.90;;;;;;4963552;28;20234;-44
2023/01/29 03:04:44;;;;;;;22.90;20.80;;;-0.30;99.90;;;;;;4963750;28;20181;-45
2023/01/29 03:07:21;;;;;;;23.70;21.65;;;-0.30;99.90;;;;;;4963245;28;20398;-41
2023/01/29 03:09:52;;;;;;;23.48;21.08;;;-0.30;99.90;;;;;;4969712;28;20180;-41
2023/01/29 03:13:02;;;;;;;23.60;21.35;;;-0.30;99.90;;;;;;4963148;28;20588;-41
2023/01/29 03:15:37;;;;;;;23.23;21.10;;;-0.40;99.90;;;;;;4965042;28;20561;-41
2023/01/29 03:18:21;;;;;;;22.92;20.73;;;-0.50;99.90;;;;;;4963040;28;20176;-41
2023/01/29 03:20:52;;;;;;;23.15;21.02;;;-0.60;99.90;;;;;;4965685;28;20213;-41
2023/01/29 03:23:46;;;;;;;22.67;20.65;;;-0.60;99.90;;;;;;4963020;28;20286;-41
2023/01/29 03:32:05;;;;;;;23.08;21.00;;;-0.70;99.90;;;;;;4975506;28;21031;-42
2023/01/29 03:34:40;;;;;;;22.95;20.80;;;-0.80;99.90;;;;;;4967507;28;20195;-40
2023/01/29 03:37:36;;;;;;;22.52;20.42;;;-0.80;99.90;;;;;;4969411;28;20195;-41
2023/01/29 03:40:03;;;;;;;21.98;19.70;;;-0.80;99.90;;;;;;4975371;28;20239;-40
2023/01/29 03:42:32;;;;;;;22.42;20.23;;;-0.70;99.90;;;;;;4977704;28;20235;-40
2023/01/29 03:45:09;;;;;;;21.48;19.48;;;-0.70;99.90;;;;;;4976596;28;20627;-42
2023/01/29 03:48:02;;;;;;;22.52;20.13;;;-0.80;99.90;;;;;;4977968;28;20250;-40
2023/01/29 03:50:53;;;;;;;22.25;20.20;;;-0.80;99.90;;;;;;4969570;28;20189;-41
2023/01/29 03:53:42;;;;;;;20.85;18.85;;;-0.80;99.90;;;;;;4979547;28;20188;-40
2023/01/29 03:56:29;;;;;;;21.73;19.40;;;-0.80;99.90;;;;;;4959138;28;20188;-42
2023/01/29 03:59:10;;;;;;;19.75;17.95;;;-0.80;99.90;;;;;;4972065;28;20204;-40
2023/01/29 04:01:57;;;;;;;20.60;18.73;;;-0.80;99.90;;;;;;4973437;28;20179;-40
2023/01/29 04:04:22;;;;;;;21.45;19.55;;;-0.90;99.90;;;;;;4978909;28;20184;-41
2023/01/29 04:06:52;;;;;;;21.63;19.53;;;-1.00;99.90;;;;;;4962545;28;20181;-41
2023/01/29 04:09:54;;;;;;;21.55;19.45;;;-0.90;99.90;;;;;;4979596;28;20188;-41
2023/01/29 04:12:27;;;;;;;20.55;18.60;;;-1.10;99.90;;;;;;4974091;28;20243;-39
2023/01/29 04:14:54;;;;;;;20.52;18.52;;;-1.10;99.90;;;;;;4962822;28;20191;-41
2023/01/29 04:17:31;;;;;;;20.25;18.25;;;-1.10;99.90;;;;;;4962347;28;20196;-41
2023/01/29 04:19:58;;;;;;;21.67;19.33;;;-1.20;99.90;;;;;;4969291;28;20749;-41
2023/01/29 04:22:31;;;;;;;22.65;20.17;;;-1.30;99.90;;;;;;4962974;28;20192;-41
2023/01/29 04:25:01;;;;;;;20.95;18.88;;;-1.30;99.90;;;;;;4962727;28;20204;-40
2023/01/29 04:27:51;;;;;;;22.20;18.65;;;-1.30;99.90;;;;;;4967523;28;20257;-40
2023/01/29 04:30:49;;;;;;;22.10;20.00;;;-1.30;99.90;;;;;;4959571;28;20288;-41
2023/01/29 04:33:28;;;;;;;21.33;19.30;;;-1.40;99.90;;;;;;4969936;28;20643;-41
2023/01/29 04:36:15;;;;;;;20.88;18.88;;;-1.40;99.90;;;;;;4967756;28;20993;-41
2023/01/29 04:38:55;;;;;;;22.23;19.88;;;-1.40;99.90;;;;;;4976809;28;20279;-41
2023/01/29 04:41:28;;;;;;;22.05;19.80;;;-1.50;99.90;;;;;;4972818;28;20231;-41
2023/01/29 04:44:30;;;;;;;22.25;19.95;;;-1.50;99.90;;;;;;4968948;28;20185;-41
2023/01/29 04:47:07;;;;;;;21.27;19.08;;;-1.50;99.90;;;;;;4968556;28;20191;-40
2023/01/29 04:49:57;;;;;;;21.55;19.45;;;-1.60;99.90;;;;;;4969388;28;20185;-40
2023/01/29 04:52:43;;;;;;;20.90;18.85;;;-1.60;99.90;;;;;;4970216;28;20226;-41
2023/01/29 04:56:04;;;;;;;24.75;20.58;;;-1.70;99.90;;;;;;4970589;28;20270;-42
2023/01/29 04:58:41;;;;;;;23.00;20.55;;;-1.80;99.90;;;;;;4921718;29;20202;-41
2023/01/29 05:01:11;;;;;;;23.35;20.85;;;-1.80;99.90;;;;;;4958135;28;20637;-41
2023/01/29 05:03:41;;;;;;;23.85;21.58;;;-1.80;99.90;;;;;;4972315;28;20180;-41
2023/01/29 05:06:09;;;;;;;22.90;20.27;;;-1.80;99.90;;;;;;4972011;28;20593;-41
2023/01/29 05:08:38;;;;;;;22.15;19.63;;;-1.80;99.90;;;;;;4971244;28;20184;-42
2023/01/29 05:11:04;;;;;;;22.17;19.85;;;-1.80;99.90;;;;;;4976051;28;20871;-43
2023/01/29 05:13:33;;;;;;;23.77;21.45;;;-1.80;99.90;;;;;;4964179;28;20207;-41
2023/01/29 05:16:21;;;;;;;23.27;21.00;;;-1.80;99.90;;;;;;4967565;28;20219;-41
2023/01/29 05:18:47;;;;;;;22.67;20.25;;;-1.70;99.90;;;;;;4983994;28;20184;-41
2023/01/29 05:21:13;;;;;;;22.33;20.03;;;-1.80;99.90;;;;;;4972033;28;20180;-42
2023/01/29 05:23:38;;;;;;;22.93;20.33;;;-1.80;99.90;;;;;;4982602;28;20435;-41
2023/01/29 05:26:04;;;;;;;23.57;21.17;;;-1.70;99.90;;;;;;4973206;28;20173;-41
2023/01/29 05:28:30;;;;;;;23.63;21.23;;;-1.70;99.90;;;;;;4970103;28;20206;-41
2023/01/29 05:30:56;;;;;;;23.80;21.50;;;-1.80;99.90;;;;;;4973230;28;20590;-41
2023/01/29 05:33:32;;;;;;;31.60;23.13;;;-1.80;99.90;;;;;;4972301;28;20765;-41
2023/01/29 05:35:59;;;;;;;31.05;23.20;;;-1.80;99.90;;;;;;4975483;28;20192;-41
2023/01/29 05:38:25;;;;;;;25.85;22.02;;;-1.80;99.90;;;;;;4982017;28;20207;-42
2023/01/29 05:40:51;;;;;;;27.63;21.77;;;-1.80;99.90;;;;;;4974467;28;20232;-41
2023/01/29 05:43:23;;;;;;;25.37;21.90;;;-1.80;99.90;;;;;;4977987;28;20331;-41
2023/01/29 05:45:52;;;;;;;36.58;22.77;;;-1.80;99.90;;;;;;4977260;28;20731;-42
2023/01/29 05:48:18;;;;;;;26.67;22.58;;;-1.80;99.90;;;;;;4980448;28;20199;-41
2023/01/29 05:50:43;;;;;;;24.67;21.90;;;-1.80;99.90;;;;;;4968564;28;20189;-41
2023/01/29 05:53:09;;;;;;;24.50;22.00;;;-1.80;99.90;;;;;;4979340;28;20530;-41
2023/01/29 05:55:35;;;;;;;27.57;21.77;;;-1.90;99.90;;;;;;4972083;28;20208;-41
2023/01/29 05:58:00;;;;;;;27.90;24.20;;;-1.90;99.90;;;;;;4965779;28;20230;-44
2023/01/29 06:00:26;;;;;;;24.30;21.70;;;-1.90;99.90;;;;;;4968445;28;21156;-44
2023/01/29 06:02:52;;;;;;;23.40;20.97;;;-1.90;99.90;;;;;;4965263;28;20207;-46
2023/01/29 06:05:17;;;;;;;23.67;21.10;;;-1.90;99.90;;;;;;4967911;28;20510;-46
2023/01/29 06:07:46;;;;;;;24.30;21.80;;;-1.90;99.90;;;;;;4974539;28;20179;-41
2023/01/29 06:10:13;;;;;;;25.38;22.65;;;-2.00;99.90;;;;;;4974597;28;20216;-41
2023/01/29 06:12:39;;;;;;;26.05;23.23;;;-1.90;99.90;;;;;;4973800;28;20266;-41
2023/01/29 06:15:05;;;;;;;25.35;22.65;;;-1.90;99.90;;;;;;4979437;28;20212;-41
2023/01/29 06:17:31;;;;;;;26.20;22.48;;;-1.90;99.90;;;;;;4974030;28;20266;-41
2023/01/29 06:19:57;;;;;;;25.40;22.27;;;-1.90;99.90;;;;;;4965910;28;20211;-41
2023/01/29 06:22:22;;;;;;;24.23;21.60;;;-1.90;99.90;;;;;;4973846;28;20187;-40
2023/01/29 06:24:48;;;;;;;24.30;21.70;;;-2.00;99.90;;;;;;4974800;28;20268;-41
2023/01/29 06:27:13;;;;;;;26.00;23.30;;;-2.00;99.90;;;;;;4965247;28;20196;-40
2023/01/29 06:29:39;;;;;;;24.60;22.03;;;-1.90;99.90;;;;;;4967045;28;20200;-41
2023/01/29 06:32:04;;;;;;;24.70;22.07;;;-2.00;99.90;;;;;;4974261;28;20189;-41
2023/01/29 06:34:30;;;;;;;23.80;21.53;;;-2.00;99.90;;;;;;4964067;28;20223;-41
2023/01/29 06:36:56;;;;;;;23.57;21.03;;;-1.90;99.90;;;;;;4975822;28;20187;-40
2023/01/29 06:39:21;;;;;;;22.77;20.57;;;-1.80;99.90;;;;;;4980579;28;20212;-40
2023/01/29 06:41:47;;;;;;;24.40;21.97;;;-1.80;99.90;;;;;;4970274;28;20275;-42
2023/01/29 06:44:13;;;;;;;25.17;22.47;;;-1.80;99.90;;;;;;4978888;28;20192;-40
2023/01/29 06:46:38;;;;;;;24.57;21.53;;;-1.70;99.90;;;;;;4971463;28;20180;-40
2023/01/29 06:49:04;;;;;;;23.67;21.20;;;-1.60;99.90;;;;;;4975661;28;20242;-41
2023/01/29 06:51:29;;;;;;;24.77;22.27;;;-1.60;99.90;;;;;;4970644;28;20192;-41
2023/01/29 06:53:55;;;;;;;24.90;22.00;;;-1.60;99.90;;;;;;4967836;28;20593;-41
2023/01/29 06:56:21;;;;;;;24.80;22.20;;;-1.50;99.90;;;;;;4976413;28;20241;-41
2023/01/29 06:58:47;;;;;;;24.33;21.83;;;-1.40;99.90;;;;;;4966230;28;20235;-41
2023/01/29 07:01:13;;;;;;;24.70;22.03;;;-1.30;99.90;;;;;;4963957;28;20196;-41
2023/01/29 07:03:40;;;;;;;24.87;22.30;;;-1.20;99.90;;;;;;4972205;28;20221;-40
2023/01/29 07:06:07;;;;;;;24.55;21.95;;;-1.20;99.90;;;;;;4977372;28;20436;-40
2023/01/29 07:08:36;;;;;;;25.05;22.35;;;-1.00;99.90;;;;;;4971981;28;20180;-41
2023/01/29 07:11:02;;;;;;;22.65;20.50;;;-1.00;99.90;;;;;;4976883;28;20654;-40
2023/01/29 07:13:28;;;;;;;23.77;21.45;;;-0.90;99.90;;;;;;4980858;28;20192;-40
2023/01/29 07:15:58;;;;;;;23.10;20.70;;;-0.90;99.90;;;;;;4975805;28;20252;-40
2023/01/29 07:18:23;;;;;;;24.15;21.88;;;-0.90;99.90;;;;;;4979690;28;20435;-41
2023/01/29 07:20:49;;;;;;;23.87;21.20;;;-0.90;99.90;;;;;;4975855;28;20254;-40
2023/01/29 07:23:16;;;;;;;22.73;20.50;;;-0.80;99.90;;;;;;4978257;28;20180;-43
2023/01/29 07:25:42;;;;;;;22.77;20.48;;;-0.70;99.90;;;;;;4967403;28;20647;-41
2023/01/29 07:28:07;;;;;;;22.60;20.50;;;-0.80;99.90;;;;;;4964585;28;20272;-44
2023/01/29 07:30:33;;;;;;;23.53;21.20;;;-0.70;99.90;;;;;;4976949;28;20192;-42
2023/01/29 07:33:07;;;;;;;23.90;20.80;;;-0.60;99.90;;;;;;4972845;28;20202;-42
2023/01/29 07:35:37;;;;;;;21.77;19.58;;;-0.70;99.90;;;;;;4966296;28;20213;-41
2023/01/29 07:38:03;;;;;;;22.42;20.23;;;-0.60;99.90;;;;;;4964641;28;20193;-42
2023/01/29 07:40:29;;;;;;;23.60;21.27;;;-0.60;99.90;;;;;;4964329;28;20238;-42
2023/01/29 07:43:04;;;;;;;22.43;20.23;;;-0.50;99.90;;;;;;4963941;28;20209;-41
2023/01/29 07:45:30;;;;;;;22.45;20.23;;;-0.50;99.90;;;;;;4962558;28;20290;-43
2023/01/29 07:47:56;;;;;;;22.35;20.17;;;-0.50;99.90;;;;;;4963183;28;20193;-42
2023/01/29 07:50:23;;;;;;;23.27;21.17;;;-0.50;99.90;;;;;;4959868;28;20182;-43
2023/01/29 07:52:50;;;;;;;23.10;20.90;;;-0.30;99.90;;;;;;4946877;28;20431;-43
2023/01/29 07:55:16;;;;;;;22.25;20.08;;;-0.30;99.90;;;;;;4954018;28;20215;-42
2023/01/29 07:57:42;;;;;;;22.60;20.40;;;-0.30;99.90;;;;;;4967965;28;20213;-42
2023/01/29 08:00:09;;;;;;;22.15;19.95;;;-0.20;99.90;;;;;;4963617;28;20291;-42
2023/01/29 08:02:34;;;;;;;23.40;21.20;;;-0.20;99.90;;;;;;4964633;28;20647;-47
2023/01/29 08:05:00;;;;;;;21.50;19.60;;;-0.20;99.90;;;;;;4951487;28;20193;-48
2023/01/29 08:07:26;;;;;;;21.40;19.30;;;-0.20;99.90;;;;;;4975808;28;20188;-45
2023/01/29 08:09:51;;;;;;;21.90;19.77;;;-0.10;99.90;;;;;;4966859;28;20188;-47
2023/01/29 08:12:17;;;;;;;22.43;20.20;;;0.00;99.90;;;;;;4965500;28;20195;-47
2023/01/29 08:14:44;;;;;;;21.97;19.73;;;0.00;99.90;;;;;;4968685;28;20184;-45
2023/01/29 08:17:10;;;;;;;22.60;20.35;;;0.10;99.90;;;;;;4964922;28;20209;-47
2023/01/29 08:19:36;;;;;;;20.58;18.67;;;0.20;99.90;;;;;;4962755;28;20301;-42
2023/01/29 08:22:02;;;;;;;21.90;19.80;;;0.30;99.90;;;;;;4963809;28;20192;-42
2023/01/29 08:24:28;;;;;;;21.92;19.80;;;0.40;99.90;;;;;;4964904;28;20177;-42
2023/01/29 08:26:53;;;;;;;21.90;19.80;;;0.40;99.90;;;;;;4965334;28;20239;-46
2023/01/29 08:29:19;;;;;;;20.83;18.83;;;0.50;99.90;;;;;;4962366;28;20198;-43
2023/01/29 08:31:45;;;;;;;22.27;20.00;;;0.60;99.90;;;;;;4981757;28;20310;-42
2023/01/29 08:34:10;;;;;;;20.20;18.37;;;0.50;99.90;;;;;;4984197;28;20202;-41
2023/01/29 08:36:36;;;;;;;22.00;19.77;;;0.40;99.90;;;;;;4974896;28;20216;-43
2023/01/29 08:39:02;;;;;;;21.97;20.00;;;0.50;99.90;;;;;;4965749;28;20229;-43
2023/01/29 08:41:28;;;;;;;21.37;19.23;;;0.50;99.90;;;;;;4965958;28;20233;-42
2023/01/29 08:43:53;;;;;;;21.50;19.50;;;0.60;99.90;;;;;;4967080;28;20485;-45
2023/01/29 08:46:19;;;;;;;21.20;19.20;;;0.60;99.90;;;;;;4968167;28;20241;-43
2023/01/29 08:48:44;;;;;;;22.27;20.00;;;0.60;99.90;;;;;;4969142;28;20660;-43
2023/01/29 08:51:10;;;;;;;22.37;20.17;;;0.60;99.90;;;;;;4975732;28;20220;-45
2023/01/29 08:53:36;;;;;;;20.50;18.60;;;0.50;99.90;;;;;;4966855;28;20180;-43
2023/01/29 08:56:01;;;;;;;20.37;18.37;;;0.60;99.90;;;;;;4968337;28;20186;-46
2023/01/29 08:58:27;;;;;;;20.43;18.63;;;0.50;99.90;;;;;;4977024;28;20189;-46
2023/01/29 09:00:52;;;;;;;21.60;19.70;;;0.60;99.90;;;;;;4969490;28;20209;-43
2023/01/29 09:03:18;;;;;;;20.77;18.87;;;0.60;99.90;;;;;;4968623;28;20686;-45
2023/01/29 09:05:45;;;;;;;20.37;18.37;;;0.80;99.90;;;;;;4975264;28;20235;-44
2023/01/29 09:08:11;;;;;;;20.98;19.00;;;0.80;99.90;;;;;;4974920;28;20224;-45
2023/01/29 09:10:37;;;;;;;21.17;19.23;;;0.90;99.90;;;;;;4972450;28;20343;-44
2023/01/29 09:13:03;;;;;;;21.17;19.27;;;0.90;99.90;;;;;;4972559;28;20198;-43
2023/01/29 09:15:29;;;;;;;21.90;19.70;;;0.90;99.90;;;;;;4974435;28;20516;-46
2023/01/29 09:17:54;;;;;;;21.63;19.73;;;0.90;99.90;;;;;;4977486;28;20264;-44
2023/01/29 09:20:20;;;;;;;19.67;17.77;;;1.00;99.90;;;;;;4970793;28;20210;-44
2023/01/29 09:22:46;;;;;;;20.47;18.57;;;1.00;99.90;;;;;;4973887;28;20239;-44
2023/01/29 09:25:12;;;;;;;20.88;18.88;;;0.90;99.90;;;;;;4964728;28;20606;-44
2023/01/29 09:27:38;;;;;;;20.83;18.70;;;1.00;99.90;;;;;;4967026;28;20187;-45
2023/01/29 09:30:05;;;;;;;21.13;19.23;;;1.10;99.90;;;;;;4966429;28;20252;-45
2023/01/29 09:32:32;;;;;;;20.27;18.45;;;1.10;99.90;;;;;;4968679;28;20245;-46
2023/01/29 09:34:58;;;;;;;20.20;18.40;;;1.10;99.90;;;;;;4973309;28;20186;-44
2023/01/29 09:37:24;;;;;;;21.83;19.83;;;1.10;99.90;;;;;;4964436;28;20240;-46
2023/01/29 09:39:49;;;;;;;23.20;20.80;;;1.10;99.90;;;;;;4974076;28;20218;-45
2023/01/29 09:42:40;;;;;;;23.00;20.10;;;1.30;99.90;;;;;;4972405;28;20241;-45
2023/01/29 09:45:23;;;;;;;23.35;21.05;;;1.40;99.90;;;;;;4968682;28;20547;-46
2023/01/29 09:47:50;;;;;;;21.63;19.75;;;1.60;99.90;;;;;;4977075;28;20630;-44
2023/01/29 09:50:42;;;;;;;21.50;19.42;;;1.60;99.90;;;;;;4971145;28;20685;-45
2023/01/29 09:53:32;;;;;;;20.17;18.30;;;1.80;99.90;;;;;;4969682;28;20191;-44
2023/01/29 09:56:03;;;;;;;21.00;19.00;;;1.80;99.90;;;;;;4969940;28;20583;-46
2023/01/29 09:58:37;;;;;;;21.08;19.23;;;1.90;99.90;;;;;;4973246;28;20192;-48
2023/01/29 10:01:26;;;;;;;22.55;20.38;;;2.00;99.90;;;;;;4974333;28;20242;-48
2023/01/29 10:04:10;;;;;;;20.50;18.60;;;2.00;99.90;;;;;;4978319;28;20265;-44
2023/01/29 10:07:25;;;;;;;20.55;18.65;;;2.00;99.90;;;;;;4975804;28;20186;-45
2023/01/29 10:10:08;;;;;;;20.00;18.05;;;1.90;99.90;;;;;;4936870;28;20595;-46
2023/01/29 10:12:50;;;;;;;21.33;19.33;;;1.80;99.90;;;;;;4965600;28;20194;-45
2023/01/29 10:15:22;;;;;;;20.25;18.15;;;1.80;99.90;;;;;;4968263;28;20218;-41
2023/01/29 10:18:12;;;;;;;22.40;20.20;;;1.70;99.90;;;;;;4967184;28;20550;-45
2023/01/29 10:21:03;;;;;;;21.33;19.02;;;1.60;99.90;;;;;;4972322;28;20252;-44
2023/01/29 10:23:42;;;;;;;20.83;18.83;;;1.60;99.90;;;;;;4971039;28;20346;-44
2023/01/29 10:26:11;;;;;;;20.65;18.60;;;1.80;99.90;;;;;;4973254;28;20285;-47
2023/01/29 10:28:42;;;;;;;21.23;19.23;;;1.90;99.90;;;;;;4970392;28;20618;-45
2023/01/29 10:31:12;;;;;;;20.75;18.88;;;2.00;99.90;;;;;;4970269;28;20246;-44
2023/01/29 10:33:40;;;;;;;21.08;19.08;;;2.10;99.90;;;;;;4970380;28;20201;-47
2023/01/29 10:36:12;;;;;;;21.15;19.17;;;2.30;99.90;;;;;;4972713;28;20673;-48
2023/01/29 10:38:45;;;;;;;20.58;18.67;;;2.20;99.90;;;;;;4970882;28;21240;-49
2023/01/29 10:41:54;;;;;;;22.00;19.70;;;2.00;99.90;;;;;;4973985;28;20238;-46
2023/01/29 10:44:40;;;;;;;21.23;19.23;;;2.10;99.90;;;;;;4925660;28;20208;-47
2023/01/29 10:47:28;;;;;;;21.00;18.95;;;2.20;99.90;;;;;;4980365;28;20671;-44
2023/01/29 10:50:03;;;;;;;21.55;19.45;;;2.30;99.90;;;;;;4965294;28;20187;-48
2023/01/29 10:52:53;;;;;;;20.70;18.90;;;2.40;99.90;;;;;;4966759;28;21174;-46
2023/01/29 10:55:31;;;;;;;22.65;20.55;;;2.50;99.90;;;;;;4961400;28;21055;-45
2023/01/29 10:58:03;;;;;;;20.67;18.88;;;2.50;99.90;;;;;;4970888;28;20246;-47
2023/01/29 11:00:39;;;;;;;20.75;18.85;;;2.60;99.90;;;;;;4969188;28;20208;-48
2023/01/29 11:03:17;;;;;;;21.63;19.60;;;2.70;99.90;;;;;;4970745;28;20254;-48
2023/01/29 11:06:13;;;;;;;22.92;20.92;;;2.70;99.90;;;;;;4969715;28;20907;-51
2023/01/29 11:08:47;;;;;;;21.00;19.20;;;2.70;99.90;;;;;;4949188;28;20817;-50
2023/01/29 11:11:20;;;;;;;21.15;19.25;;;2.80;99.90;;;;;;4948184;28;20214;-52
2023/01/29 11:14:04;;;;;;;20.10;18.30;;;2.80;99.90;;;;;;4964524;28;20238;-46
2023/01/29 11:16:32;;;;;;;21.08;18.98;;;2.70;99.90;;;;;;4967554;28;20568;-45
2023/01/29 11:19:00;;;;;;;21.10;19.20;;;2.50;99.90;;;;;;4968088;28;20180;-50
2023/01/29 11:21:28;;;;;;;21.85;19.80;;;2.50;99.90;;;;;;4968142;28;20190;-45
2023/01/29 11:24:16;;;;;;;20.75;18.75;;;2.60;99.90;;;;;;4970253;28;20186;-45
2023/01/29 11:26:44;;;;;;;22.17;20.13;;;2.70;99.90;;;;;;4969032;28;20593;-49
2023/01/29 11:29:32;;;;;;;20.88;18.85;;;2.70;99.90;;;;;;4968509;28;20259;-49
2023/01/29 11:31:59;;;;;;;22.33;20.17;;;2.80;99.90;;;;;;4966516;28;20186;-49
2023/01/29 11:34:31;;;;;;;20.70;18.70;;;3.00;99.90;;;;;;4971318;28;20265;-48
2023/01/29 11:37:14;;;;;;;21.65;19.60;;;3.10;99.90;;;;;;4972914;28;20240;-47
2023/01/29 11:39:43;;;;;;;21.40;19.35;;;3.10;99.90;;;;;;4978990;28;20214;-46
2023/01/29 11:42:20;;;;;;;21.00;19.20;;;3.00;99.90;;;;;;4971049;28;20226;-52
2023/01/29 11:44:46;;;;;;;21.88;19.83;;;2.90;99.90;;;;;;4965799;28;20218;-46
2023/01/29 11:47:24;;;;;;;21.70;19.60;;;2.60;99.90;;;;;;4974526;28;21264;-49
2023/01/29 11:49:52;;;;;;;21.73;19.63;;;2.50;99.90;;;;;;4965713;28;20700;-49
2023/01/29 11:52:32;;;;;;;21.25;19.25;;;2.50;99.90;;;;;;4965002;28;20198;-47
2023/01/29 11:55:02;;;;;;;21.83;19.77;;;2.60;99.90;;;;;;4968006;28;20294;-45
2023/01/29 11:57:37;;;;;;;21.30;19.45;;;2.50;99.90;;;;;;4968651;28;20742;-48
2023/01/29 12:00:06;;;;;;;22.02;19.95;;;2.60;99.90;;;;;;4970062;28;20912;-50
2023/01/29 12:02:44;;;;;;;21.35;19.25;;;2.60;99.90;;;;;;4968453;28;20185;-50
2023/01/29 12:05:19;;;;;;;20.60;18.52;;;2.60;99.90;;;;;;4973731;28;20260;-53
2023/01/29 12:07:48;;;;;;;21.15;19.15;;;2.80;99.90;;;;;;4972774;28;20278;-46
2023/01/29 12:10:36;;;;;;;20.92;19.02;;;2.80;99.90;;;;;;4971691;28;20645;-48
2023/01/29 12:13:26;;;;;;;21.40;19.50;;;2.80;99.90;;;;;;4968310;28;20182;-47
2023/01/29 12:16:12;;;;;;;20.13;18.27;;;2.80;99.90;;;;;;4959335;28;20219;-44
2023/01/29 12:18:43;;;;;;;20.75;18.77;;;2.80;99.90;;;;;;4963620;28;20203;-43
2023/01/29 12:21:17;;;;;;;20.77;18.88;;;2.80;99.90;;;;;;4968528;28;20304;-45
2023/01/29 12:23:43;;;;;;;20.17;18.45;;;2.80;99.90;;;;;;4968534;28;20186;-51
2023/01/29 12:26:19;;;;;;;21.13;19.30;;;3.00;99.90;;;;;;4966220;28;20183;-47
2023/01/29 12:29:02;;;;;;;20.55;18.65;;;3.00;99.90;;;;;;4971046;28;20186;-44
2023/01/29 12:31:42;;;;;;;22.52;20.40;;;3.00;99.90;;;;;;4969224;28;20181;-46
2023/01/29 12:34:14;;;;;;;20.05;18.05;;;2.80;99.90;;;;;;4961897;28;20207;-48
2023/01/29 12:36:54;;;;;;;21.65;19.73;;;2.70;99.90;;;;;;4963817;28;20184;-49
2023/01/29 12:39:20;;;;;;;19.77;17.95;;;2.70;99.90;;;;;;4969644;28;20218;-45
2023/01/29 12:42:04;;;;;;;21.10;19.10;;;2.70;99.90;;;;;;4977871;28;20230;-47
2023/01/29 12:44:40;;;;;;;19.13;17.23;;;2.70;99.90;;;;;;4971968;28;20641;-49
2023/01/29 12:47:28;;;;;;;19.95;18.00;;;2.90;99.90;;;;;;4978732;28;20176;-45
2023/01/29 12:49:59;;;;;;;21.48;19.40;;;3.10;99.90;;;;;;4969683;28;20954;-50
2023/01/29 12:52:42;;;;;;;18.88;17.17;;;3.10;99.90;;;;;;4973348;28;20331;-50
2023/01/29 12:55:16;;;;;;;19.50;17.70;;;3.10;99.90;;;;;;4992042;28;20180;-50
2023/01/29 12:57:53;;;;;;;19.08;17.27;;;3.20;99.90;;;;;;4996803;28;20318;-46
2023/01/29 13:00:27;;;;;;;19.30;17.60;;;3.20;99.90;;;;;;4995876;28;20280;-47
2023/01/29 13:03:16;;;;;;;19.80;18.10;;;3.20;99.90;;;;;;4996801;28;20190;-48
2023/01/29 13:05:55;;;;;;;18.92;17.30;;;3.30;99.90;;;;;;4982727;28;20224;-45
2023/01/29 13:08:29;;;;;;;20.35;18.30;;;3.40;99.90;;;;;;4991726;28;20528;-46
2023/01/29 13:11:00;;;;;;;20.10;18.30;;;3.40;99.90;;;;;;4995572;28;20191;-45
2023/01/29 13:13:51;;;;;;;18.92;17.30;;;3.40;99.90;;;;;;4989944;28;20184;-44
2023/01/29 13:16:22;;;;;;;21.02;19.02;;;3.40;99.90;;;;;;4994888;28;20187;-44
2023/01/29 13:19:05;;;;;;;19.70;17.92;;;3.40;99.90;;;;;;5002307;28;20185;-44
2023/01/29 13:21:37;;;;;;;19.73;17.92;;;3.50;99.90;;;;;;4991181;28;20182;-42